createdAt,value
2017-08-01T00:00:18.257Z,0
2017-08-01T00:01:28.766Z,0
2017-08-01T00:02:39.243Z,0
2017-08-01T00:03:49.994Z,0
2017-08-01T00:05:00.477Z,0
2017-08-01T00:06:10.956Z,0
2017-08-01T00:07:21.523Z,0
2017-08-01T00:08:32.117Z,0
2017-08-01T00:09:42.835Z,0
2017-08-01T00:10:53.023Z,0
2017-08-01T00:12:03.570Z,0
2017-08-01T00:13:14.091Z,0
2017-08-01T00:14:24.571Z,0
2017-08-01T00:15:35.305Z,0
2017-08-01T00:16:45.855Z,0
2017-08-01T00:17:56.035Z,0
2017-08-01T00:19:06.632Z,0
2017-08-01T00:20:16.690Z,0
2017-08-01T00:21:26.780Z,0
2017-08-01T00:22:36.969Z,0
2017-08-01T00:23:47.468Z,0
2017-08-01T00:24:57.689Z,0
2017-08-01T00:26:08.168Z,0
2017-08-01T00:27:18.981Z,0
2017-08-01T00:28:29.471Z,0
2017-08-01T00:29:40.017Z,0
2017-08-01T00:30:50.490Z,0
2017-08-01T00:32:00.951Z,0
2017-08-01T00:33:11.663Z,0
2017-08-01T00:34:22.165Z,0
2017-08-01T00:35:32.651Z,0
2017-08-01T00:36:43.358Z,0
2017-08-01T00:37:53.865Z,0
2017-08-01T00:39:04.679Z,0
2017-08-01T00:40:15.330Z,0
2017-08-01T00:41:25.879Z,0
2017-08-01T00:42:36.325Z,0
2017-08-01T00:43:46.496Z,0
2017-08-01T00:44:57.290Z,0
2017-08-01T00:46:07.766Z,0
2017-08-01T00:47:18.261Z,0
2017-08-01T00:48:28.753Z,0
2017-08-01T00:49:39.246Z,0
2017-08-01T00:50:49.963Z,0
2017-08-01T00:52:00.564Z,0
2017-08-01T00:53:10.748Z,0
2017-08-01T00:54:21.218Z,0
2017-08-01T00:55:31.796Z,0
2017-08-01T00:56:42.526Z,0
2017-08-01T00:57:52.995Z,0
2017-08-01T00:59:03.592Z,0
2017-08-01T01:00:14.060Z,0
2017-08-01T01:01:24.585Z,0
2017-08-01T01:02:35.444Z,0
2017-08-01T01:03:45.890Z,0
2017-08-01T01:04:56.448Z,0
2017-08-01T01:06:07.145Z,0
2017-08-01T01:07:17.605Z,0
2017-08-01T01:08:28.339Z,0
2017-08-01T01:09:38.801Z,0
2017-08-01T01:10:49.305Z,0
2017-08-01T01:11:59.877Z,0
2017-08-01T01:13:10.399Z,0
2017-08-01T01:14:21.323Z,0
2017-08-01T01:15:31.792Z,0
2017-08-01T01:16:42.489Z,0
2017-08-01T01:17:53.026Z,0
2017-08-01T01:19:03.540Z,0
2017-08-01T01:20:13.971Z,0
2017-08-01T01:21:24.009Z,0
2017-08-01T01:22:34.510Z,0
2017-08-01T01:23:44.955Z,0
2017-08-01T01:24:55.508Z,0
2017-08-01T01:26:05.788Z,0
2017-08-01T01:27:16.279Z,0
2017-08-01T01:28:26.914Z,0
2017-08-01T01:29:37.465Z,0
2017-08-01T01:30:48.066Z,0
2017-08-01T01:31:58.822Z,0
2017-08-01T01:33:09.292Z,0
2017-08-01T01:34:19.784Z,0
2017-08-01T01:35:30.251Z,0
2017-08-01T01:36:40.723Z,0
2017-08-01T01:37:51.484Z,0
2017-08-01T01:39:01.983Z,0
2017-08-01T01:40:12.495Z,0
2017-08-01T01:41:23.175Z,0
2017-08-01T01:42:33.224Z,0
2017-08-01T01:43:43.984Z,0
2017-08-01T01:44:54.524Z,0
2017-08-01T01:46:05.091Z,0
2017-08-01T01:47:15.621Z,0
2017-08-01T01:48:26.123Z,0
2017-08-01T01:49:36.840Z,0
2017-08-01T01:50:47.298Z,0
2017-08-01T01:51:57.764Z,0
2017-08-01T01:53:08.242Z,0
2017-08-01T01:54:18.706Z,0
2017-08-01T01:55:29.462Z,0
2017-08-01T01:56:40.074Z,0
2017-08-01T01:57:50.610Z,0
2017-08-01T01:59:01.097Z,0
2017-08-01T02:00:11.339Z,0
2017-08-01T02:01:21.786Z,0
2017-08-01T02:02:32.269Z,0
2017-08-01T02:03:42.760Z,0
2017-08-01T02:04:53.234Z,0
2017-08-01T02:06:03.402Z,0
2017-08-01T02:07:14.173Z,0
2017-08-01T02:08:24.662Z,0
2017-08-01T02:09:35.141Z,0
2017-08-01T02:10:45.216Z,0
2017-08-01T02:11:55.727Z,0
2017-08-01T02:13:06.457Z,0
2017-08-01T02:14:16.944Z,0
2017-08-01T02:15:27.517Z,0
2017-08-01T02:16:38.036Z,0
2017-08-01T02:17:48.527Z,0
2017-08-01T02:18:59.163Z,0
2017-08-01T02:20:09.664Z,0
2017-08-01T02:21:20.129Z,0
2017-08-01T02:22:30.277Z,0
2017-08-01T02:23:40.367Z,0
2017-08-01T02:24:51.231Z,0
2017-08-01T02:26:01.707Z,0
2017-08-01T02:27:12.206Z,0
2017-08-01T02:28:22.746Z,0
2017-08-01T02:29:33.216Z,0
2017-08-01T02:30:44.005Z,0
2017-08-01T02:31:54.475Z,0
2017-08-01T02:33:05.014Z,0
2017-08-01T02:34:15.499Z,0
2017-08-01T02:35:25.976Z,0
2017-08-01T02:36:36.692Z,0
2017-08-01T02:37:47.146Z,0
2017-08-01T02:38:57.724Z,0
2017-08-01T02:40:08.262Z,0
2017-08-01T02:41:18.739Z,0
2017-08-01T02:42:29.448Z,0
2017-08-01T02:43:39.937Z,0
2017-08-01T02:44:50.381Z,0
2017-08-01T02:46:00.853Z,0
2017-08-01T02:47:11.363Z,0
2017-08-01T02:48:22.261Z,0
2017-08-01T02:49:32.421Z,0
2017-08-01T02:50:42.897Z,0
2017-08-01T02:51:53.553Z,0
2017-08-01T02:53:03.740Z,0
2017-08-01T02:54:14.489Z,0
2017-08-01T02:55:25.007Z,0
2017-08-01T02:56:35.481Z,0
2017-08-01T02:57:45.998Z,0
2017-08-01T02:58:56.741Z,0
2017-08-01T03:00:07.492Z,0
2017-08-01T03:01:17.954Z,0
2017-08-01T03:02:28.480Z,0
2017-08-01T03:03:38.675Z,0
2017-08-01T03:04:49.139Z,0
2017-08-01T03:05:59.905Z,0
2017-08-01T03:07:10.416Z,0
2017-08-01T03:08:20.893Z,0
2017-08-01T03:09:31.357Z,0
2017-08-01T03:10:41.946Z,0
2017-08-01T03:11:52.677Z,0
2017-08-01T03:13:03.145Z,0
2017-08-01T03:14:13.812Z,0
2017-08-01T03:15:24.405Z,0
2017-08-01T03:16:35.084Z,0
2017-08-01T03:17:45.837Z,0
2017-08-01T03:18:56.313Z,0
2017-08-01T03:20:06.765Z,0
2017-08-01T03:21:17.256Z,0
2017-08-01T03:22:27.717Z,4
2017-08-01T03:23:38.491Z,4
2017-08-01T03:24:48.966Z,0
2017-08-01T03:25:59.637Z,4
2017-08-01T03:27:10.300Z,4
2017-08-01T03:28:20.765Z,4
2017-08-01T03:29:31.583Z,4
2017-08-01T03:30:42.103Z,4
2017-08-01T03:31:52.696Z,4
2017-08-01T03:33:02.866Z,4
2017-08-01T03:34:13.337Z,4
2017-08-01T03:35:24.063Z,4
2017-08-01T03:36:34.582Z,4
2017-08-01T03:37:45.082Z,4
2017-08-01T03:38:55.585Z,4
2017-08-01T03:40:05.609Z,4
2017-08-01T03:41:16.377Z,4
2017-08-01T03:42:26.845Z,4
2017-08-01T03:43:37.327Z,4
2017-08-01T03:44:47.847Z,8
2017-08-01T03:45:58.300Z,8
2017-08-01T03:47:09.055Z,12
2017-08-01T03:48:19.510Z,12
2017-08-01T03:49:30.010Z,16
2017-08-01T03:50:40.672Z,20
2017-08-01T03:51:51.136Z,24
2017-08-01T03:53:01.879Z,36
2017-08-01T03:54:12.372Z,32
2017-08-01T03:55:22.499Z,40
2017-08-01T03:56:32.697Z,40
2017-08-01T03:57:43.220Z,48
2017-08-01T03:58:53.927Z,56
2017-08-01T04:00:04.409Z,60
2017-08-01T04:01:15.111Z,72
2017-08-01T04:02:25.576Z,80
2017-08-01T04:03:36.190Z,88
2017-08-01T04:04:46.906Z,92
2017-08-01T04:05:57.386Z,96
2017-08-01T04:07:07.857Z,116
2017-08-01T04:08:18.333Z,120
2017-08-01T04:09:28.808Z,128
2017-08-01T04:10:39.519Z,136
2017-08-01T04:11:50.046Z,140
2017-08-01T04:13:00.777Z,144
2017-08-01T04:14:11.235Z,152
2017-08-01T04:15:21.697Z,140
2017-08-01T04:16:32.417Z,136
2017-08-01T04:17:42.891Z,144
2017-08-01T04:18:53.399Z,152
2017-08-01T04:20:04.102Z,168
2017-08-01T04:21:14.262Z,160
2017-08-01T04:22:25.060Z,148
2017-08-01T04:23:35.514Z,140
2017-08-01T04:24:46.117Z,128
2017-08-01T04:25:56.612Z,124
2017-08-01T04:27:07.136Z,112
2017-08-01T04:28:17.938Z,104
2017-08-01T04:29:28.392Z,100
2017-08-01T04:30:38.544Z,96
2017-08-01T04:31:49.107Z,96
2017-08-01T04:32:59.579Z,108
2017-08-01T04:34:10.270Z,112
2017-08-01T04:35:20.782Z,120
2017-08-01T04:36:31.251Z,124
2017-08-01T04:37:41.750Z,128
2017-08-01T04:38:51.959Z,124
2017-08-01T04:40:02.688Z,124
2017-08-01T04:41:13.123Z,136
2017-08-01T04:42:23.594Z,148
2017-08-01T04:43:34.109Z,168
2017-08-01T04:44:44.751Z,188
2017-08-01T04:45:55.497Z,212
2017-08-01T04:47:37.472Z,272
2017-08-01T04:48:47.933Z,336
2017-08-01T04:49:58.414Z,432
2017-08-01T04:51:09.199Z,588
2017-08-01T04:52:19.649Z,824
2017-08-01T04:53:30.099Z,1092
2017-08-01T04:54:40.715Z,1384
2017-08-01T04:55:51.233Z,1516
2017-08-01T04:57:02.044Z,1468
2017-08-01T04:58:12.590Z,1504
2017-08-01T04:59:23.053Z,1540
2017-08-01T05:00:33.532Z,1508
2017-08-01T05:01:43.692Z,1388
2017-08-01T05:02:54.474Z,1056
2017-08-01T05:04:04.666Z,708
2017-08-01T05:05:15.128Z,624
2017-08-01T05:06:25.801Z,584
2017-08-01T05:07:36.273Z,604
2017-08-01T05:08:47.004Z,656
2017-08-01T05:09:57.456Z,736
2017-08-01T05:11:07.941Z,808
2017-08-01T05:12:18.412Z,812
2017-08-01T05:13:29.005Z,880
2017-08-01T05:14:39.713Z,964
2017-08-01T05:15:50.224Z,1080
2017-08-01T05:17:00.792Z,1176
2017-08-01T05:18:11.274Z,1348
2017-08-01T05:19:21.792Z,1508
2017-08-01T05:20:32.588Z,1620
2017-08-01T05:21:43.092Z,1688
2017-08-01T05:22:53.792Z,1788
2017-08-01T05:24:04.272Z,1916
2017-08-01T05:25:15.032Z,2104
2017-08-01T05:26:25.730Z,2372
2017-08-01T05:27:35.873Z,2704
2017-08-01T05:28:46.373Z,2956
2017-08-01T05:29:56.886Z,3184
2017-08-01T05:31:07.375Z,3408
2017-08-01T05:32:18.090Z,3520
2017-08-01T05:33:28.716Z,3540
2017-08-01T05:34:39.288Z,3352
2017-08-01T05:35:49.732Z,3104
2017-08-01T05:37:00.317Z,2924
2017-08-01T05:38:11.030Z,2716
2017-08-01T05:39:21.540Z,2596
2017-08-01T05:40:32.006Z,2448
2017-08-01T05:41:42.511Z,2320
2017-08-01T05:42:53.016Z,2220
2017-08-01T05:44:03.727Z,2248
2017-08-01T05:45:14.204Z,2432
2017-08-01T05:46:24.712Z,2728
2017-08-01T05:47:35.179Z,3020
2017-08-01T05:48:45.655Z,3144
2017-08-01T05:49:56.362Z,3116
2017-08-01T05:51:06.878Z,3176
2017-08-01T05:52:17.346Z,3596
2017-08-01T05:53:27.808Z,4360
2017-08-01T05:54:38.263Z,5296
2017-08-01T05:55:49.100Z,6176
2017-08-01T05:56:59.577Z,6572
2017-08-01T05:58:10.143Z,6824
2017-08-01T05:59:20.670Z,6688
2017-08-01T06:00:31.157Z,7224
2017-08-01T06:01:41.887Z,8596
2017-08-01T06:02:52.389Z,9240
2017-08-01T06:04:02.862Z,9456
2017-08-01T06:05:13.334Z,9092
2017-08-01T06:06:23.807Z,8460
2017-08-01T06:07:33.789Z,7964
2017-08-01T06:08:44.295Z,7660
2017-08-01T06:09:54.773Z,7428
2017-08-01T06:11:05.391Z,7372
2017-08-01T06:12:15.556Z,7928
2017-08-01T06:13:26.302Z,8016
2017-08-01T06:14:36.801Z,8312
2017-08-01T06:15:47.314Z,8740
2017-08-01T06:16:57.488Z,8616
2017-08-01T06:18:07.490Z,8752
2017-08-01T06:19:17.933Z,8328
2017-08-01T06:20:28.469Z,8160
2017-08-01T06:21:38.964Z,7716
2017-08-01T06:22:49.434Z,7316
2017-08-01T06:24:00.323Z,6980
2017-08-01T06:25:11.381Z,7032
2017-08-01T06:26:21.858Z,7072
2017-08-01T06:27:32.295Z,6928
2017-08-01T06:28:42.848Z,6996
2017-08-01T06:29:53.301Z,7412
2017-08-01T06:31:04.171Z,7420
2017-08-01T06:32:14.696Z,7104
2017-08-01T06:33:25.179Z,6632
2017-08-01T06:34:35.368Z,5900
2017-08-01T06:35:45.854Z,5680
2017-08-01T06:36:56.680Z,5500
2017-08-01T06:38:06.754Z,5032
2017-08-01T06:39:17.209Z,4804
2017-08-01T06:40:27.693Z,5176
2017-08-01T06:41:38.154Z,5444
2017-08-01T06:42:48.949Z,5784
2017-08-01T06:43:59.430Z,6252
2017-08-01T06:45:09.930Z,6740
2017-08-01T06:46:20.411Z,7104
2017-08-01T06:47:31.128Z,7396
2017-08-01T06:48:41.867Z,7404
2017-08-01T06:49:52.377Z,7784
2017-08-01T06:51:02.856Z,8108
2017-08-01T06:52:13.348Z,8236
2017-08-01T06:53:23.825Z,8128
2017-08-01T06:54:34.578Z,8008
2017-08-01T06:55:45.265Z,8012
2017-08-01T06:56:55.431Z,8324
2017-08-01T06:58:05.894Z,8656
2017-08-01T06:59:16.462Z,8788
2017-08-01T07:00:27.184Z,8104
2017-08-01T07:01:37.785Z,6960
2017-08-01T07:02:48.248Z,7276
2017-08-01T07:03:58.717Z,7588
2017-08-01T07:05:09.265Z,8208
2017-08-01T07:06:19.683Z,8712
2017-08-01T07:07:30.173Z,8864
2017-08-01T07:08:40.686Z,8956
2017-08-01T07:09:51.149Z,10416
2017-08-01T07:11:01.859Z,11640
2017-08-01T07:12:12.144Z,12384
2017-08-01T07:13:22.440Z,12408
2017-08-01T07:14:32.998Z,11744
2017-08-01T07:15:43.499Z,11620
2017-08-01T07:16:53.968Z,11012
2017-08-01T07:18:04.731Z,10904
2017-08-01T07:19:15.421Z,10800
2017-08-01T07:20:25.978Z,10544
2017-08-01T07:21:36.187Z,10868
2017-08-01T07:22:46.683Z,11292
2017-08-01T07:23:57.397Z,11976
2017-08-01T07:25:07.998Z,12976
2017-08-01T07:26:18.021Z,13980
2017-08-01T07:27:28.612Z,15680
2017-08-01T07:28:39.076Z,15132
2017-08-01T07:29:49.829Z,14616
2017-08-01T07:31:00.442Z,13900
2017-08-01T07:32:10.964Z,13292
2017-08-01T07:33:21.515Z,12688
2017-08-01T07:34:32.020Z,12720
2017-08-01T07:35:43.052Z,12968
2017-08-01T07:36:53.550Z,13892
2017-08-01T07:38:03.715Z,14792
2017-08-01T07:39:14.201Z,14480
2017-08-01T07:40:24.654Z,13772
2017-08-01T07:41:35.525Z,13008
2017-08-01T07:42:45.993Z,11844
2017-08-01T07:43:56.572Z,11224
2017-08-01T07:45:06.717Z,11228
2017-08-01T07:46:16.973Z,12248
2017-08-01T07:47:27.673Z,13196
2017-08-01T07:48:38.195Z,14612
2017-08-01T07:49:48.672Z,15776
2017-08-01T07:50:59.171Z,16448
2017-08-01T07:52:09.645Z,17312
2017-08-01T07:53:20.583Z,17824
2017-08-01T07:54:31.126Z,19328
2017-08-01T07:55:41.596Z,19712
2017-08-01T07:56:52.091Z,20384
2017-08-01T07:58:02.561Z,20576
2017-08-01T07:59:13.271Z,20512
2017-08-01T08:00:23.885Z,19424
2017-08-01T08:01:34.413Z,18624
2017-08-01T08:02:44.981Z,19040
2017-08-01T08:03:55.469Z,18592
2017-08-01T08:05:37.899Z,15604
2017-08-01T08:06:48.370Z,13548
2017-08-01T08:07:58.947Z,11408
2017-08-01T08:09:09.437Z,11708
2017-08-01T08:10:20.181Z,11008
2017-08-01T08:11:30.677Z,10804
2017-08-01T08:12:41.155Z,11092
2017-08-01T08:13:51.657Z,11812
2017-08-01T08:15:02.214Z,12316
2017-08-01T08:16:12.976Z,12404
2017-08-01T08:17:23.557Z,11904
2017-08-01T08:18:33.867Z,12124
2017-08-01T08:19:44.433Z,12532
2017-08-01T08:20:55.132Z,13252
2017-08-01T08:22:05.996Z,14304
2017-08-01T08:23:16.479Z,16384
2017-08-01T08:24:26.700Z,16576
2017-08-01T08:25:37.305Z,19968
2017-08-01T08:26:47.783Z,19488
2017-08-01T08:27:58.600Z,20096
2017-08-01T08:29:09.091Z,19584
2017-08-01T08:30:19.568Z,20448
2017-08-01T08:31:30.212Z,21696
2017-08-01T08:32:40.908Z,23488
2017-08-01T08:33:51.624Z,24896
2017-08-01T08:35:02.155Z,23744
2017-08-01T08:36:12.675Z,26048
2017-08-01T08:37:23.156Z,28544
2017-08-01T08:38:33.678Z,27808
2017-08-01T08:39:44.422Z,28768
2017-08-01T08:40:54.632Z,45824
2017-08-01T08:42:05.197Z,58048
2017-08-01T08:43:15.787Z,56160
2017-08-01T08:44:26.305Z,52512
2017-08-01T08:45:37.069Z,58656
2017-08-01T08:46:47.568Z,71680
2017-08-01T08:47:58.212Z,63840
2017-08-01T08:49:08.756Z,66400
2017-08-01T08:50:19.280Z,65280
2017-08-01T08:51:30.002Z,58528
2017-08-01T08:52:40.477Z,67872
2017-08-01T08:53:51.330Z,77920
2017-08-01T08:55:01.842Z,68064
2017-08-01T08:56:12.590Z,66240
2017-08-01T08:57:23.021Z,85920
2017-08-01T08:58:33.532Z,93504
2017-08-01T08:59:44.000Z,81344
2017-08-01T09:00:54.279Z,105376
2017-08-01T09:02:04.878Z,110624
2017-08-01T09:03:15.696Z,78592
2017-08-01T09:04:26.309Z,87424
2017-08-01T09:05:37.269Z,94400
2017-08-01T09:06:47.794Z,90176
2017-08-01T09:07:58.311Z,87872
2017-08-01T09:09:09.068Z,104416
2017-08-01T09:10:19.642Z,97856
2017-08-01T09:11:30.128Z,82880
2017-08-01T09:12:40.735Z,110112
2017-08-01T09:13:51.274Z,95072
2017-08-01T09:15:02.119Z,73984
2017-08-01T09:16:12.662Z,45888
2017-08-01T09:17:23.149Z,86688
2017-08-01T09:18:33.654Z,76096
2017-08-01T09:19:44.151Z,82752
2017-08-01T09:20:54.936Z,90752
2017-08-01T09:22:05.419Z,103232
2017-08-01T09:23:15.968Z,101760
2017-08-01T09:24:26.485Z,86464
2017-08-01T09:25:37.013Z,84032
2017-08-01T09:26:47.774Z,97312
2017-08-01T09:27:58.307Z,89152
2017-08-01T09:29:08.798Z,81536
2017-08-01T09:30:19.330Z,108608
2017-08-01T09:31:29.837Z,120736
2017-08-01T09:32:40.633Z,87744
2017-08-01T09:33:51.078Z,71648
2017-08-01T09:35:01.633Z,77952
2017-08-01T09:36:12.111Z,80640
2017-08-01T09:37:22.642Z,89920
2017-08-01T09:38:33.687Z,89024
2017-08-01T09:39:44.206Z,84064
2017-08-01T09:40:54.778Z,92032
2017-08-01T09:42:05.321Z,95072
2017-08-01T09:43:16.763Z,106656
2017-08-01T09:44:27.550Z,113120
2017-08-01T09:45:38.068Z,103200
2017-08-01T09:46:48.545Z,93376
2017-08-01T09:48:00.109Z,87008
2017-08-01T09:49:10.709Z,89760
2017-08-01T09:50:21.453Z,92736
2017-08-01T09:51:31.969Z,85504
2017-08-01T09:52:42.669Z,82048
2017-08-01T09:53:53.145Z,91808
2017-08-01T09:55:03.640Z,96736
2017-08-01T09:56:14.517Z,87360
2017-08-01T09:57:25.247Z,62880
2017-08-01T09:58:35.738Z,67616
2017-08-01T09:59:46.266Z,85088
2017-08-01T10:00:56.764Z,82528
2017-08-01T10:02:07.523Z,95488
2017-08-01T10:03:18.095Z,100608
2017-08-01T10:04:28.790Z,80512
2017-08-01T10:05:39.479Z,93216
2017-08-01T10:06:49.986Z,107328
2017-08-01T10:08:00.732Z,94336
2017-08-01T10:09:11.217Z,90592
2017-08-01T10:10:21.776Z,110720
2017-08-01T10:11:32.015Z,112096
2017-08-01T10:12:42.222Z,102368
2017-08-01T10:13:53.228Z,91200
2017-08-01T10:15:03.785Z,83392
2017-08-01T10:16:14.000Z,80192
2017-08-01T10:17:25.523Z,92320
2017-08-01T10:18:36.041Z,119488
2017-08-01T10:19:46.821Z,132288
2017-08-01T10:20:57.307Z,119136
2017-08-01T10:22:07.788Z,99840
2017-08-01T10:23:18.479Z,92096
2017-08-01T10:24:28.990Z,95104
2017-08-01T10:25:39.784Z,106624
2017-08-01T10:26:50.347Z,122272
2017-08-01T10:28:00.886Z,128992
2017-08-01T10:29:11.404Z,108512
2017-08-01T10:30:21.958Z,107616
2017-08-01T10:31:33.448Z,127200
2017-08-01T10:32:58.749Z,135680
2017-08-01T10:34:09.296Z,114080
2017-08-01T10:35:19.872Z,81824
2017-08-01T10:36:30.609Z,68480
2017-08-01T10:37:41.090Z,102176
2017-08-01T10:38:51.152Z,95904
2017-08-01T10:40:01.649Z,74784
2017-08-01T10:41:12.178Z,65440
2017-08-01T10:42:22.740Z,89888
2017-08-01T10:43:33.248Z,111584
2017-08-01T10:44:43.950Z,98208
2017-08-01T10:45:54.431Z,88160
2017-08-01T10:47:04.476Z,102144
2017-08-01T10:48:15.467Z,37696
2017-08-01T10:49:26.002Z,99168
2017-08-01T10:50:36.705Z,92416
2017-08-01T10:51:47.311Z,83712
2017-08-01T10:52:57.830Z,112128
2017-08-01T10:54:08.567Z,107008
2017-08-01T10:55:18.828Z,110304
2017-08-01T10:56:29.335Z,111136
2017-08-01T10:57:39.844Z,115744
2017-08-01T10:58:50.027Z,125248
2017-08-01T11:00:00.816Z,110944
2017-08-01T11:01:11.294Z,91264
2017-08-01T11:02:21.910Z,99072
2017-08-01T11:03:32.392Z,128864
2017-08-01T11:04:42.889Z,134496
2017-08-01T11:05:53.715Z,111200
2017-08-01T11:07:04.258Z,96672
2017-08-01T11:08:14.824Z,96416
2017-08-01T11:09:25.438Z,95840
2017-08-01T11:10:35.935Z,105536
2017-08-01T11:11:46.390Z,113248
2017-08-01T11:12:57.247Z,108704
2017-08-01T11:14:07.786Z,114208
2017-08-01T11:15:18.302Z,116064
2017-08-01T11:16:29.111Z,127904
2017-08-01T11:17:40.170Z,106816
2017-08-01T11:18:50.686Z,98048
2017-08-01T11:20:01.266Z,103264
2017-08-01T11:21:11.862Z,80256
2017-08-01T11:22:22.358Z,36192
2017-08-01T11:23:33.258Z,68384
2017-08-01T11:24:43.867Z,88096
2017-08-01T11:25:54.376Z,103680
2017-08-01T11:27:04.940Z,75104
2017-08-01T11:28:15.584Z,116096
2017-08-01T11:29:26.364Z,31104
2017-08-01T11:30:36.571Z,30656
2017-08-01T11:31:47.140Z,28928
2017-08-01T11:32:57.641Z,33152
2017-08-01T11:34:08.230Z,59808
2017-08-01T11:35:18.986Z,39776
2017-08-01T11:36:29.521Z,25920
2017-08-01T11:37:40.047Z,26816
2017-08-01T11:38:50.756Z,23648
2017-08-01T11:40:01.278Z,30240
2017-08-01T11:41:12.335Z,75392
2017-08-01T11:42:22.825Z,26816
2017-08-01T11:43:33.375Z,21120
2017-08-01T11:44:43.897Z,18144
2017-08-01T11:45:54.394Z,12140
2017-08-01T11:47:05.105Z,9324
2017-08-01T11:48:15.650Z,8360
2017-08-01T11:49:26.191Z,8120
2017-08-01T11:50:36.725Z,7276
2017-08-01T11:51:47.250Z,6768
2017-08-01T11:52:58.068Z,6660
2017-08-01T11:54:08.607Z,6660
2017-08-01T11:55:19.140Z,6992
2017-08-01T11:56:29.725Z,7188
2017-08-01T11:57:40.295Z,6988
2017-08-01T11:58:51.034Z,7904
2017-08-01T12:00:01.594Z,8520
2017-08-01T12:01:12.136Z,9860
2017-08-01T12:02:22.696Z,12612
2017-08-01T12:03:33.215Z,15152
2017-08-01T12:04:43.927Z,17152
2017-08-01T12:05:54.174Z,14496
2017-08-01T12:07:04.525Z,14280
2017-08-01T12:08:15.103Z,14072
2017-08-01T12:09:25.642Z,13092
2017-08-01T12:10:36.133Z,12408
2017-08-01T12:11:46.659Z,14552
2017-08-01T12:12:57.155Z,16480
2017-08-01T12:14:07.641Z,16672
2017-08-01T12:15:18.134Z,17344
2017-08-01T12:16:28.598Z,18400
2017-08-01T12:17:38.636Z,16480
2017-08-01T12:18:49.162Z,12920
2017-08-01T12:19:59.665Z,11224
2017-08-01T12:21:10.197Z,12196
2017-08-01T12:22:20.609Z,13492
2017-08-01T12:23:31.547Z,15776
2017-08-01T12:24:42.007Z,22240
2017-08-01T12:25:52.574Z,33952
2017-08-01T12:27:03.071Z,33376
2017-08-01T12:28:14.052Z,30688
2017-08-01T12:29:24.537Z,22496
2017-08-01T12:30:35.237Z,17824
2017-08-01T12:31:45.717Z,13340
2017-08-01T12:32:56.432Z,12740
2017-08-01T12:34:07.168Z,13504
2017-08-01T12:35:17.823Z,12864
2017-08-01T12:36:28.316Z,12772
2017-08-01T12:37:38.828Z,10668
2017-08-01T12:38:49.310Z,12444
2017-08-01T12:39:59.821Z,15488
2017-08-01T12:41:10.318Z,25152
2017-08-01T12:42:20.504Z,23040
2017-08-01T12:43:31.074Z,18336
2017-08-01T12:44:41.690Z,15032
2017-08-01T12:45:52.039Z,13260
2017-08-01T12:47:02.245Z,12328
2017-08-01T12:48:12.745Z,11632
2017-08-01T12:49:23.246Z,13096
2017-08-01T12:50:33.871Z,16896
2017-08-01T12:51:44.668Z,21152
2017-08-01T12:52:54.894Z,41408
2017-08-01T12:54:05.440Z,61024
2017-08-01T12:55:15.979Z,38624
2017-08-01T12:56:26.438Z,25216
2017-08-01T12:57:37.251Z,18944
2017-08-01T12:58:47.763Z,17920
2017-08-01T12:59:58.309Z,16000
2017-08-01T13:01:08.828Z,16384
2017-08-01T13:02:19.285Z,31200
2017-08-01T13:03:29.814Z,44320
2017-08-01T13:04:40.320Z,63520
2017-08-01T13:05:50.805Z,93088
2017-08-01T13:07:01.491Z,114976
2017-08-01T13:08:11.675Z,82656
2017-08-01T13:09:22.717Z,41952
2017-08-01T13:10:33.270Z,20608
2017-08-01T13:11:43.497Z,19904
2017-08-01T13:12:54.141Z,20384
2017-08-01T13:14:04.651Z,19840
2017-08-01T13:15:15.520Z,59744
2017-08-01T13:16:26.035Z,24128
2017-08-01T13:17:36.584Z,34752
2017-08-01T13:18:47.150Z,108928
2017-08-01T13:19:57.407Z,86944
2017-08-01T13:21:08.158Z,76832
2017-08-01T13:22:18.679Z,83744
2017-08-01T13:23:28.870Z,76736
2017-08-01T13:24:39.368Z,45408
2017-08-01T13:25:49.967Z,26176
2017-08-01T13:27:00.765Z,45504
2017-08-01T13:28:11.237Z,29408
2017-08-01T13:29:21.853Z,31648
2017-08-01T13:30:32.353Z,68448
2017-08-01T13:31:42.875Z,15968
2017-08-01T13:32:53.798Z,24320
2017-08-01T13:34:04.333Z,14188
2017-08-01T13:35:14.815Z,13420
2017-08-01T13:36:25.334Z,14796
2017-08-01T13:37:35.825Z,19936
2017-08-01T13:38:46.621Z,29216
2017-08-01T13:39:57.149Z,46496
2017-08-01T13:41:07.328Z,87936
2017-08-01T13:42:17.862Z,84096
2017-08-01T13:43:28.012Z,65760
2017-08-01T13:44:38.732Z,76768
2017-08-01T13:45:49.268Z,95392
2017-08-01T13:46:59.436Z,88032
2017-08-01T13:48:09.647Z,68992
2017-08-01T13:49:20.297Z,81152
2017-08-01T13:50:30.741Z,78944
2017-08-01T13:51:41.486Z,34848
2017-08-01T13:52:51.986Z,25888
2017-08-01T13:54:02.534Z,43072
2017-08-01T13:55:13.055Z,25056
2017-08-01T13:56:23.841Z,18496
2017-08-01T13:57:34.354Z,15356
2017-08-01T13:58:44.843Z,14248
2017-08-01T13:59:55.052Z,14056
2017-08-01T14:01:05.322Z,11764
2017-08-01T14:02:16.214Z,10544
2017-08-01T14:03:26.748Z,11264
2017-08-01T14:04:37.301Z,14752
2017-08-01T14:05:47.890Z,24576
2017-08-01T14:06:58.529Z,28928
2017-08-01T14:08:09.453Z,28128
2017-08-01T14:09:20.033Z,30944
2017-08-01T14:10:30.547Z,29440
2017-08-01T14:11:41.031Z,28224
2017-08-01T14:12:51.546Z,67904
2017-08-01T14:14:02.341Z,58912
2017-08-01T14:15:12.875Z,52384
2017-08-01T14:16:23.663Z,45120
2017-08-01T14:17:33.838Z,24160
2017-08-01T14:18:44.355Z,16608
2017-08-01T14:19:55.113Z,18464
2017-08-01T14:21:06.012Z,28320
2017-08-01T14:22:16.517Z,75648
2017-08-01T14:23:27.038Z,61248
2017-08-01T14:24:37.629Z,36320
2017-08-01T14:25:48.437Z,28160
2017-08-01T14:26:58.928Z,15068
2017-08-01T14:28:09.526Z,12728
2017-08-01T14:29:20.044Z,11856
2017-08-01T14:30:30.555Z,11904
2017-08-01T14:31:41.496Z,12204
2017-08-01T14:32:52.037Z,13656
2017-08-01T14:34:02.277Z,14164
2017-08-01T14:35:12.832Z,12444
2017-08-01T14:36:23.359Z,9748
2017-08-01T14:37:34.096Z,9264
2017-08-01T14:38:44.609Z,9820
2017-08-01T14:39:55.092Z,11052
2017-08-01T14:41:05.602Z,12316
2017-08-01T14:42:16.310Z,12004
2017-08-01T14:43:27.197Z,10244
2017-08-01T14:44:37.758Z,10168
2017-08-01T14:45:48.249Z,9756
2017-08-01T14:46:58.943Z,10044
2017-08-01T14:48:09.469Z,14284
2017-08-01T14:49:20.247Z,15584
2017-08-01T14:50:30.875Z,16896
2017-08-01T14:51:41.379Z,15484
2017-08-01T14:52:52.006Z,12376
2017-08-01T14:54:02.208Z,10792
2017-08-01T14:55:12.931Z,10704
2017-08-01T14:56:23.544Z,10584
2017-08-01T14:57:34.080Z,9984
2017-08-01T14:58:44.591Z,8232
2017-08-01T14:59:54.674Z,7336
2017-08-01T15:01:05.468Z,6416
2017-08-01T15:02:15.985Z,5140
2017-08-01T15:03:26.485Z,4468
2017-08-01T15:04:36.764Z,4428
2017-08-01T15:05:47.601Z,4780
2017-08-01T15:06:58.359Z,5476
2017-08-01T15:08:08.829Z,6184
2017-08-01T15:09:19.317Z,6116
2017-08-01T15:10:29.957Z,5520
2017-08-01T15:11:40.438Z,5104
2017-08-01T15:12:51.268Z,5376
2017-08-01T15:14:02.861Z,5460
2017-08-01T15:15:13.381Z,5220
2017-08-01T15:16:23.939Z,5640
2017-08-01T15:17:34.500Z,6664
2017-08-01T15:18:45.239Z,7340
2017-08-01T15:19:55.972Z,8184
2017-08-01T15:21:06.529Z,8908
2017-08-01T15:22:17.062Z,8660
2017-08-01T15:23:27.728Z,8752
2017-08-01T15:24:38.696Z,18496
2017-08-01T15:25:49.251Z,15712
2017-08-01T15:26:59.722Z,12496
2017-08-01T15:28:10.207Z,13140
2017-08-01T15:29:20.829Z,11708
2017-08-01T15:30:31.614Z,11588
2017-08-01T15:31:42.199Z,12104
2017-08-01T15:32:52.677Z,12976
2017-08-01T15:34:03.161Z,10896
2017-08-01T15:35:13.892Z,8828
2017-08-01T15:36:24.693Z,8940
2017-08-01T15:37:35.194Z,8172
2017-08-01T15:38:45.747Z,7312
2017-08-01T15:39:56.262Z,6396
2017-08-01T15:41:06.753Z,5988
2017-08-01T15:42:17.532Z,5864
2017-08-01T15:43:27.872Z,5220
2017-08-01T15:44:38.358Z,5140
2017-08-01T15:45:48.902Z,5472
2017-08-01T15:46:59.726Z,5736
2017-08-01T15:48:10.307Z,5416